Time;durP1;ratioP1;P1;durP2;ratioP2;P2;SDS_P1;SDS_P2;PMS_P1;PMS_P2;Temp;Humidity;BMP_temperature;BMP_pressure;BME280_temperature;BME280_humidity;BME280_pressure;Samples;Min_cycle;Max_cycle;Signal;HPM_P1;HPM_P2
2022/02/03 00:01:39;;;;;;;;;;;;;;;5.26;98.14;97144.91;4981932;28;19956;-74
2022/02/03 00:04:11;;;;;;;;;;;;;;;5.27;98.14;97144.75;4986837;28;19984;-75
2022/02/03 00:06:49;;;;;;;;;;;;;;;5.28;98.23;97146.38;4986617;28;19954;-75
2022/02/03 00:25:33;;;;;;;;;;;;;;;5.30;98.07;97146.22;4978299;28;20436;-75
2022/02/03 00:28:09;;;;;;;;;;;;;;;5.27;98.48;97149.97;4981633;28;19964;-75
2022/02/03 00:31:05;;;;;;;;;;;;;;;5.28;98.21;97137.75;4990843;28;19972;-75
2022/02/03 00:36:09;;;;;;;;;;;;;;;5.27;98.33;97138.72;4986937;28;19966;-75
2022/02/03 00:49:25;;;;;;;;;;;;;;;5.27;98.50;97126.56;4980956;28;19975;-75
2022/02/03 00:51:57;;;;;;;;;;;;;;;5.25;99.51;97128.50;4974535;28;20080;-75
2022/02/03 00:54:24;;;;;;;;;;;;;;;5.23;99.06;97125.25;4990438;28;20006;-75
2022/02/03 00:56:54;;;;;;;;;;;;;;;5.23;99.04;97133.06;4980448;28;19964;-75
2022/02/03 00:59:39;;;;;;;;;;;;;;;5.25;98.45;97125.09;4986254;28;19962;-75
2022/02/03 01:02:11;;;;;;;;;;;;;;;5.26;98.43;97137.13;4992106;28;19960;-75
2022/02/03 01:04:39;;;;;;;;;;;;;;;5.26;98.29;97135.31;4982042;28;20331;-75
2022/02/03 01:07:19;;;;;;;;;;;;;;;5.28;98.25;97135.16;4985925;28;19968;-75
2022/02/03 01:09:53;;;;;;;;;;;;;;;5.27;98.19;97129.16;4984003;28;19984;-76
2022/02/03 01:12:56;;;;;;;;;;;;;;;5.26;97.83;97130.13;4965917;28;19961;-75
2022/02/03 01:44:44;;;;;;;;;;;;;;;5.18;98.23;97111.94;4985419;28;19975;-75
2022/02/03 01:47:26;;;;;;;;;;;;;;;5.19;98.10;97110.97;4980219;28;19963;-75
2022/02/03 01:52:30;;;;;;;;;;;;;;;5.18;98.07;97098.13;4985537;28;19962;-75
2022/02/03 01:54:56;;;;;;;;;;;;;;;5.19;98.07;97090.16;4979311;28;19993;-75
2022/02/03 01:57:24;;;;;;;;;;;;;;;5.19;97.77;97090.16;4984620;28;19966;-75
2022/02/03 01:59:55;;;;;;;;;;;;;;;5.17;97.58;97094.72;4989948;28;20321;-75
2022/02/03 02:02:25;;;;;;;;;;;;;;;5.16;97.63;97100.91;4987240;28;19961;-75
2022/02/03 02:05:06;;;;;;;;;;;;;;;5.16;97.60;97100.91;4982431;28;20545;-75
2022/02/03 02:07:50;;;;;;;;;;;;;;;5.14;97.26;97102.84;4984812;28;19955;-75
2022/02/03 02:13:12;;;;;;;;;;;;;;;5.13;97.34;97116.03;4983206;28;19957;-75
2022/02/03 02:16:06;;;;;;;;;;;;;;;5.14;97.33;97107.25;4976464;28;19951;-75
2022/02/03 02:18:56;;;;;;;;;;;;;;;5.14;97.53;97107.25;4976052;28;19957;-75
2022/02/03 02:38:28;;;;;;;;;;;;;;;5.07;99.30;97076.72;4982274;28;19966;-75
2022/02/03 02:41:55;;;;;;;;;;;;;;;5.05;99.45;97083.88;4984537;28;19963;-75
2022/02/03 02:44:15;;;;;;;;;;;;;;;5.05;99.33;97083.88;4974281;28;19988;-75
2022/02/03 02:46:52;;;;;;;;;;;;;;;5.06;99.17;97084.66;4975451;28;20339;-75
2022/02/03 02:49:17;;;;;;;;;;;;;;;5.06;99.54;97082.91;4976672;28;19977;-75
2022/02/03 02:52:05;;;;;;;;;;;;;;;5.08;99.32;97080.94;4984859;28;19958;-75
2022/02/03 02:55:08;;;;;;;;;;;;;;;5.12;99.25;97078.00;4974851;28;20490;-75
2022/02/03 02:58:07;;;;;;;;;;;;;;;5.12;99.51;97071.00;4988238;28;19968;-75
2022/02/03 03:01:20;;;;;;;;;;;;;;;5.12;99.33;97063.19;4986889;28;20423;-75
2022/02/03 03:31:32;;;;;;;;;;;;;;;5.13;99.47;97033.66;4988355;28;19956;-75
2022/02/03 03:34:06;;;;;;;;;;;;;;;5.12;99.18;97024.19;4981056;28;20338;-75
2022/02/03 03:36:32;;;;;;;;;;;;;;;5.12;98.73;97036.41;4988530;28;19958;-75
2022/02/03 03:39:01;;;;;;;;;;;;;;;5.11;99.41;97032.19;4987638;28;20331;-75
2022/02/03 03:41:29;;;;;;;;;;;;;;;5.09;99.21;97032.34;4990132;28;20403;-75
2022/02/03 03:44:03;;;;;;;;;;;;;;;5.06;99.63;97028.31;4990107;28;19976;-75
2022/02/03 03:46:36;;;;;;;;;;;;;;;5.06;99.42;97036.09;4990049;28;20450;-75
2022/02/03 03:49:05;;;;;;;;;;;;;;;5.06;99.08;97032.69;4982422;28;19960;-75
2022/02/03 03:51:43;;;;;;;;;;;;;;;5.06;99.56;97022.28;4986935;28;19957;-75
2022/02/03 03:54:12;;;;;;;;;;;;;;;5.06;99.71;97009.28;4988501;28;19985;-75
2022/02/03 03:56:56;;;;;;;;;;;;;;;5.04;100.00;97024.22;4970736;28;19987;-75
2022/02/03 04:30:49;;;;;;;;;;;;;;;4.97;97.78;97008.50;4924291;29;19954;-75
2022/02/03 04:44:24;;;;;;;;;;;;;;;4.87;97.06;96981.91;4958120;28;19973;-75
2022/02/03 05:07:14;;;;;;;;;;;;;;;4.78;97.38;96972.53;4982014;28;19982;-75
2022/02/03 05:21:43;;;;;;;;;;;;;;;4.71;97.22;96945.59;4979124;28;19964;-75
2022/02/03 05:52:32;;;;;;;;;;;;;;;4.70;99.37;96959.56;4984474;28;19954;-75
2022/02/03 06:13:46;;;;;;;;;;;;;;;4.58;100.00;96922.75;4987349;28;19960;-75
2022/02/03 06:24:16;;;;;;;;;;;;;;;4.66;100.00;96927.91;4984447;28;20327;-75
2022/02/03 06:29:30;;;;;;;;;;;;;;;4.71;100.00;96922.22;4982579;28;19969;-75
2022/02/03 06:31:56;;;;;;;;;;;;;;;4.70;100.00;96916.19;4985320;28;19969;-75
2022/02/03 06:34:22;;;;;;;;;;;;;;;4.69;100.00;96909.41;4981435;28;19966;-76
2022/02/03 06:36:50;;;;;;;;;;;;;;;4.70;100.00;96903.22;4982924;28;19973;-75
2022/02/03 06:39:17;;;;;;;;;;;;;;;4.70;100.00;96892.00;4987371;28;19958;-75
2022/02/03 06:41:50;;;;;;;;;;;;;;;4.71;100.00;96904.03;4985704;28;19963;-75
2022/02/03 06:44:18;;;;;;;;;;;;;;;4.74;100.00;96903.69;4979543;28;19984;-75
2022/02/03 06:46:48;;;;;;;;;;;;;;;4.76;100.00;96906.94;4987493;28;19960;-75
2022/02/03 06:49:25;;;;;;;;;;;;;;;4.76;100.00;96907.72;4989876;28;19960;-75
2022/02/03 06:52:00;;;;;;;;;;;;;;;4.77;100.00;96908.56;4982853;28;20049;-75
2022/02/03 06:54:39;;;;;;;;;;;;;;;4.77;100.00;96901.56;4985217;28;20487;-75
2022/02/03 06:57:11;;;;;;;;;;;;;;;4.75;100.00;96913.13;4979430;28;19965;-75
2022/02/03 06:59:50;;;;;;;;;;;;;;;4.73;100.00;96915.06;4979668;28;19973;-75
2022/02/03 07:02:16;;;;;;;;;;;;;;;4.75;100.00;96919.13;4982171;28;19981;-75
2022/02/03 07:04:45;;;;;;;;;;;;;;;4.76;100.00;96917.31;4985083;28;19973;-76
2022/02/03 07:07:15;;;;;;;;;;;;;;;4.78;100.00;96916.16;4987166;28;19969;-75
2022/02/03 07:09:43;;;;;;;;;;;;;;;4.80;100.00;96914.22;4986242;28;19963;-75
2022/02/03 07:12:09;;;;;;;;;;;;;;;4.83;100.00;96907.84;4983553;28;19959;-75
2022/02/03 07:14:36;;;;;;;;;;;;;;;4.81;100.00;96905.44;4980808;28;19968;-76
2022/02/03 07:17:04;;;;;;;;;;;;;;;4.83;100.00;96908.69;4985652;28;19971;-75
2022/02/03 07:19:30;;;;;;;;;;;;;;;4.85;100.00;96898.09;4986725;28;19973;-75
2022/02/03 07:21:55;;;;;;;;;;;;;;;4.87;100.00;96893.53;4983648;28;19961;-75
2022/02/03 07:24:21;;;;;;;;;;;;;;;4.90;100.00;96895.81;4981589;28;20029;-75
2022/02/03 07:26:47;;;;;;;;;;;;;;;4.92;100.00;96901.66;4986289;28;19969;-75
2022/02/03 07:29:13;;;;;;;;;;;;;;;4.93;100.00;96895.47;4984671;28;20015;-76
2022/02/03 07:31:39;;;;;;;;;;;;;;;4.95;100.00;96890.09;4979532;28;19991;-75
2022/02/03 07:34:11;;;;;;;;;;;;;;;4.99;100.00;96893.97;4982235;28;19969;-75
2022/02/03 07:36:37;;;;;;;;;;;;;;;5.01;100.00;96894.63;4983339;28;19959;-75
2022/02/03 07:39:03;;;;;;;;;;;;;;;5.01;100.00;96887.63;4989197;28;20399;-75
2022/02/03 07:41:30;;;;;;;;;;;;;;;5.02;100.00;96878.06;4987782;28;20037;-75
2022/02/03 07:43:56;;;;;;;;;;;;;;;5.02;100.00;96871.06;4986142;28;19972;-75
2022/02/03 07:46:22;;;;;;;;;;;;;;;5.03;100.00;96877.06;4984373;28;19957;-76
2022/02/03 07:48:53;;;;;;;;;;;;;;;5.05;100.00;96875.91;4986663;28;19970;-76
2022/02/03 07:51:19;;;;;;;;;;;;;;;5.06;100.00;96880.13;4972526;28;19962;-75
2022/02/03 07:53:45;;;;;;;;;;;;;;;5.07;100.00;96879.13;4984633;28;19962;-75
2022/02/03 07:56:11;;;;;;;;;;;;;;;5.08;100.00;96885.13;4990295;28;20048;-75
2022/02/03 07:58:37;;;;;;;;;;;;;;;5.09;100.00;96873.78;4974021;28;19972;-75
2022/02/03 08:01:03;;;;;;;;;;;;;;;5.11;100.00;96871.81;4987284;28;20335;-76
2022/02/03 08:03:29;;;;;;;;;;;;;;;5.12;100.00;96867.41;4986901;28;19971;-76
2022/02/03 08:06:00;;;;;;;;;;;;;;;5.11;100.00;96855.41;4986862;28;19961;-75
2022/02/03 08:08:38;;;;;;;;;;;;;;;5.13;100.00;96848.25;4984709;28;19964;-75
2022/02/03 08:11:08;;;;;;;;;;;;;;;5.15;100.00;96841.88;4985062;28;19968;-75
2022/02/03 08:13:39;;;;;;;;;;;;;;;5.20;100.00;96857.75;4984944;28;19964;-75
2022/02/03 08:18:42;;;;;;;;;;;;;;;5.32;100.00;96844.38;4989107;28;19961;-75
2022/02/03 08:21:11;;;;;;;;;;;;;;;5.34;100.00;96834.59;4967929;28;19966;-75
2022/02/03 08:26:13;;;;;;;;;;;;;;;5.46;100.00;96830.59;4986615;28;20436;-75
2022/02/03 08:29:08;;;;;;;;;;;;;;;5.65;100.00;96831.91;4989437;28;20392;-75
2022/02/03 08:31:39;;;;;;;;;;;;;;;5.93;98.21;96824.28;4988750;28;19960;-75
2022/02/03 08:34:06;;;;;;;;;;;;;;;6.16;96.38;96811.22;4987064;28;19960;-75
2022/02/03 08:36:35;;;;;;;;;;;;;;;6.20;95.14;96809.88;4982831;28;19966;-75
2022/02/03 08:39:06;;;;;;;;;;;;;;;6.20;95.04;96802.06;4983633;28;19964;-75
2022/02/03 08:41:32;;;;;;;;;;;;;;;6.21;94.92;96802.84;4987959;28;20421;-75
2022/02/03 08:43:58;;;;;;;;;;;;;;;6.18;94.67;96809.25;4985893;28;20024;-75
2022/02/03 08:46:26;;;;;;;;;;;;;;;6.27;94.98;96815.16;4984339;28;20387;-75
2022/02/03 08:48:53;;;;;;;;;;;;;;;6.42;93.14;96809.91;4984391;28;19960;-75
2022/02/03 08:51:19;;;;;;;;;;;;;;;6.40;91.66;96815.31;4986081;28;19956;-75
2022/02/03 08:53:50;;;;;;;;;;;;;;;6.45;91.75;96807.75;4986653;28;19965;-74
2022/02/03 08:56:41;;;;;;;;;;;;;;;6.60;92.55;96802.53;4988480;28;19968;-75
2022/02/03 09:58:28;;;;;;;;;;;;;;;6.58;88.43;96760.19;4989997;28;20362;-74
2022/02/03 10:01:07;;;;;;;;;;;;;;;6.53;89.42;96751.31;4985287;28;19955;-74
2022/02/03 10:06:13;;;;;;;;;;;;;;;6.56;89.62;96738.72;4982582;28;19975;-75
2022/02/03 10:08:49;;;;;;;;;;;;;;;6.58;89.74;96748.97;4972392;28;19970;-75
2022/02/03 10:11:20;;;;;;;;;;;;;;;6.56;88.57;96753.56;4984333;28;19970;-74
2022/02/03 10:13:47;;;;;;;;;;;;;;;6.53;89.52;96759.97;4985530;28;20021;-75
2022/02/03 10:16:14;;;;;;;;;;;;;;;6.54;89.81;96756.34;4980463;28;19956;-74
2022/02/03 10:18:41;;;;;;;;;;;;;;;6.50;89.41;96755.91;4983143;28;20339;-74
2022/02/03 10:21:10;;;;;;;;;;;;;;;6.46;89.38;96738.22;4985770;28;19971;-74
2022/02/03 10:23:52;;;;;;;;;;;;;;;6.39;88.17;96725.13;4984011;28;19959;-74
2022/02/03 10:26:18;;;;;;;;;;;;;;;6.37;87.64;96713.28;4986727;28;19981;-74
2022/02/03 10:28:55;;;;;;;;;;;;;;;6.46;89.49;96707.75;4981845;28;20067;-74
2022/02/03 10:31:24;;;;;;;;;;;;;;;6.64;89.41;96690.91;4978867;28;20061;-75
2022/02/03 10:33:58;;;;;;;;;;;;;;;6.87;89.12;96685.50;4990721;28;19972;-73
2022/02/03 11:06:21;;;;;;;;;;;;;;;7.36;87.29;96631.66;4984998;28;20015;-74
2022/02/03 11:11:35;;;;;;;;;;;;;;;7.35;85.43;96611.75;4984047;28;19958;-74
2022/02/03 11:14:04;;;;;;;;;;;;;;;7.33;86.41;96604.16;4988259;28;19967;-74
2022/02/03 11:16:32;;;;;;;;;;;;;;;7.32;85.74;96608.53;4985723;28;19965;-74
2022/02/03 11:19:04;;;;;;;;;;;;;;;7.35;87.39;96607.38;4991911;28;19960;-75
2022/02/03 11:21:32;;;;;;;;;;;;;;;7.43;88.04;96601.16;4989108;28;19986;-75
2022/02/03 11:24:06;;;;;;;;;;;;;;;7.43;86.16;96586.34;4984010;28;19971;-74
2022/02/03 11:38:11;;;;;;;;;;;;;;;7.44;85.35;96574.09;4983697;28;19970;-74
2022/02/03 11:40:58;;;;;;;;;;;;;;;7.47;86.57;96577.09;4985084;28;19958;-74
2022/02/03 11:49:54;;;;;;;;;;;;;;;7.59;86.34;96545.25;4981193;28;19970;-74
2022/02/03 12:01:15;;;;;;;;;;;;;;;7.79;85.51;96527.81;4969213;28;20433;-74
2022/02/03 12:04:28;;;;;;;;;;;;;;;7.81;83.24;96509.34;4982935;28;20434;-74
2022/02/03 12:17:49;;;;;;;;;;;;;;;8.06;84.75;96497.34;4977362;28;19956;-74
2022/02/03 12:20:32;;;;;;;;;;;;;;;8.08;84.19;96490.09;4986666;28;20308;-74
2022/02/03 12:23:20;;;;;;;;;;;;;;;8.05;83.34;96495.72;4987088;28;19964;-74
2022/02/03 12:25:57;;;;;;;;;;;;;;;8.09;84.00;96515.19;4982016;28;19973;-74
2022/02/03 12:28:48;;;;;;;;;;;;;;;8.15;83.93;96497.94;4984566;28;19957;-74
2022/02/03 12:39:09;;;;;;;;;;;;;;;;;;;;;
2022/02/03 12:44:12;;;;;;;;;;;;;;;8.13;83.71;96468.59;4985264;28;19961;-75
2022/02/03 12:46:39;;;;;;;;;;;;;;;8.14;82.62;96437.03;4985989;28;19967;-74
2022/02/03 12:49:06;;;;;;;;;;;;;;;8.16;83.93;96443.88;4983959;28;19967;-74
2022/02/03 12:51:32;;;;;;;;;;;;;;;8.18;84.11;96449.69;4988566;28;19982;-74
2022/02/03 12:54:26;;;;;;;;;;;;;;;8.20;84.63;96455.53;4987682;28;19969;-75
2022/02/03 12:57:03;;;;;;;;;;;;;;;8.16;82.74;96447.28;4985025;28;19969;-75
2022/02/03 12:59:32;;;;;;;;;;;;;;;8.14;83.98;96454.50;4987189;28;19964;-76
2022/02/03 13:02:08;;;;;;;;;;;;;;;8.10;84.04;96438.44;4985034;28;19965;-75
2022/02/03 13:04:35;;;;;;;;;;;;;;;8.06;82.89;96426.00;4986682;28;20105;-74
2022/02/03 13:07:07;;;;;;;;;;;;;;;7.97;82.46;96406.31;4982292;28;19976;-75
2022/02/03 13:09:51;;;;;;;;;;;;;;;7.97;83.62;96419.38;4989396;28;19957;-74
2022/02/03 13:12:22;;;;;;;;;;;;;;;7.97;84.95;96433.22;4984579;28;19968;-74
2022/02/03 13:14:53;;;;;;;;;;;;;;;7.96;83.62;96420.38;4989882;28;19973;-74
2022/02/03 13:17:25;;;;;;;;;;;;;;;7.95;83.98;96410.94;4984738;28;20017;-75
2022/02/03 13:25:06;;;;;;;;;;;;;;;8.02;83.93;96376.00;4986207;28;19985;-74
2022/02/03 13:27:47;;;;;;;;;;;;;;;8.06;82.74;96369.34;4987239;28;19965;-74
2022/02/03 13:30:56;;;;;;;;;;;;;;;8.10;83.25;96406.28;4978724;28;19970;-74
2022/02/03 13:33:25;;;;;;;;;;;;;;;8.15;84.02;96411.72;4997974;28;19964;-75
2022/02/03 13:35:57;;;;;;;;;;;;;;;8.17;83.25;96396.66;4984522;28;19967;-74
2022/02/03 13:41:17;;;;;;;;;;;;;;;8.22;82.92;96381.16;4985892;28;19970;-75
2022/02/03 13:43:44;;;;;;;;;;;;;;;8.23;82.36;96368.91;4978771;28;19961;-75
2022/02/03 13:46:13;;;;;;;;;;;;;;;8.24;83.55;96366.09;4984949;28;19964;-74
2022/02/03 13:48:39;;;;;;;;;;;;;;;8.25;82.53;96348.59;4970752;28;19959;-75
2022/02/03 13:51:08;;;;;;;;;;;;;;;8.25;83.31;96359.88;4986818;28;20448;-74
2022/02/03 13:53:43;;;;;;;;;;;;;;;8.26;83.93;96345.00;4982847;28;20420;-74
2022/02/03 14:16:12;;;;;;;;;;;;;;;8.21;83.75;96356.06;4975024;28;20422;-75
2022/02/03 14:21:35;;;;;;;;;;;;;;;8.12;82.59;96331.94;4984001;28;19975;-74
2022/02/03 14:27:17;;;;;;;;;;;;;;;8.08;83.26;96336.00;4984730;28;20006;-74
2022/02/03 14:29:47;;;;;;;;;;;;;;;8.06;82.28;96330.19;4983474;28;19958;-74
2022/02/03 14:32:16;;;;;;;;;;;;;;;8.01;82.81;96342.25;4983426;28;19967;-74
2022/02/03 14:34:42;;;;;;;;;;;;;;;7.98;82.22;96335.63;4985875;28;20425;-76
2022/02/03 14:37:26;;;;;;;;;;;;;;;7.94;82.94;96339.66;4978200;28;19973;-74
2022/02/03 14:40:11;;;;;;;;;;;;;;;7.92;83.14;96342.44;4984032;28;19963;-74
2022/02/03 14:42:40;;;;;;;;;;;;;;;7.90;83.53;96341.06;4981894;28;19961;-74
2022/02/03 14:45:07;;;;;;;;;;;;;;;7.89;83.45;96336.81;4988683;28;20323;-76
2022/02/03 14:47:33;;;;;;;;;;;;;;;7.90;83.69;96336.63;4985862;28;20026;-75
2022/02/03 14:50:01;;;;;;;;;;;;;;;7.92;83.81;96339.03;4989341;28;19959;-74
2022/02/03 14:52:34;;;;;;;;;;;;;;;7.93;84.69;96341.44;4982143;28;20422;-75
2022/02/03 14:58:06;;;;;;;;;;;;;;;7.84;83.29;96324.38;4982427;28;19974;-74
2022/02/03 15:00:32;;;;;;;;;;;;;;;7.84;84.24;96319.16;4983810;28;19965;-75
2022/02/03 15:02:58;;;;;;;;;;;;;;;7.85;84.33;96304.28;4993266;28;19957;-74
2022/02/03 15:05:28;;;;;;;;;;;;;;;7.85;84.60;96312.94;4986968;28;19976;-75
2022/02/03 15:08:02;;;;;;;;;;;;;;;7.84;84.91;96318.38;4983350;28;19979;-75
2022/02/03 15:15:26;;;;;;;;;;;;;;;7.78;85.13;96334.84;4987971;28;19959;-74
2022/02/03 15:17:52;;;;;;;;;;;;;;;7.74;84.41;96316.16;4984938;28;19965;-75
2022/02/03 15:20:18;;;;;;;;;;;;;;;7.68;84.66;96327.41;4988107;28;19966;-74
2022/02/03 15:22:43;;;;;;;;;;;;;;;7.65;85.24;96331.22;4986947;28;20401;-74
2022/02/03 15:25:11;;;;;;;;;;;;;;;7.64;84.88;96320.97;4988714;28;19976;-74
2022/02/03 15:27:38;;;;;;;;;;;;;;;7.58;84.59;96299.13;4982633;28;19968;-74
2022/02/03 15:30:05;;;;;;;;;;;;;;;7.55;85.26;96314.38;4986982;28;19974;-75
2022/02/03 15:32:37;;;;;;;;;;;;;;;7.53;85.68;96319.78;4992608;28;19990;-74
2022/02/03 15:35:09;;;;;;;;;;;;;;;7.50;85.78;96318.41;4991893;28;19963;-75
2022/02/03 15:37:36;;;;;;;;;;;;;;;7.51;85.50;96319.19;4991202;28;19964;-75
2022/02/03 15:40:07;;;;;;;;;;;;;;;7.43;85.07;96309.78;4989145;28;19965;-74
2022/02/03 15:42:39;;;;;;;;;;;;;;;7.40;85.86;96315.38;4994905;28;20364;-74
2022/02/03 15:45:06;;;;;;;;;;;;;;;7.40;85.95;96315.38;4984963;28;19971;-74
2022/02/03 15:47:42;;;;;;;;;;;;;;;7.39;86.21;96313.78;4982455;28;19964;-74
2022/02/03 15:50:41;;;;;;;;;;;;;;;7.39;86.23;96320.78;4986600;28;20323;-75
2022/02/03 16:17:07;;;;;;;;;;;;;;;6.98;87.42;96316.56;4987110;28;19969;-74
2022/02/03 16:23:07;;;;;;;;;;;;;;;6.86;87.64;96305.88;4959188;28;19975;-74
2022/02/03 16:52:44;;;;;;;;;;;;;;;6.58;88.23;96317.25;4971081;28;19978;-75
2022/02/03 16:55:15;;;;;;;;;;;;;;;6.55;88.13;96309.84;4986203;28;20437;-74
2022/02/03 16:57:41;;;;;;;;;;;;;;;6.54;88.10;96313.44;4982002;28;19977;-74
2022/02/03 17:00:13;;;;;;;;;;;;;;;6.52;88.09;96314.63;4984615;28;19970;-74
2022/02/03 17:02:39;;;;;;;;;;;;;;;6.49;87.90;96295.78;4990355;28;19961;-76
2022/02/03 17:05:06;;;;;;;;;;;;;;;6.45;88.02;96312.78;4981442;28;19991;-74
2022/02/03 17:07:32;;;;;;;;;;;;;;;6.43;88.08;96316.59;4985539;28;20006;-74
2022/02/03 17:09:58;;;;;;;;;;;;;;;6.40;87.88;96327.41;4988354;28;19972;-74
2022/02/03 17:12:24;;;;;;;;;;;;;;;6.37;88.07;96322.59;4991842;28;19970;-75
2022/02/03 17:14:50;;;;;;;;;;;;;;;6.34;87.96;96312.53;4980512;28;20320;-74
2022/02/03 17:17:19;;;;;;;;;;;;;;;6.31;88.03;96305.91;4986410;28;19977;-74
2022/02/03 17:19:45;;;;;;;;;;;;;;;6.28;88.17;96314.13;4986652;28;19960;-76
2022/02/03 17:22:13;;;;;;;;;;;;;;;6.26;88.22;96303.91;4988187;28;20438;-75
2022/02/03 17:24:51;;;;;;;;;;;;;;;6.25;88.39;96310.09;4986371;28;19964;-74
2022/02/03 17:27:29;;;;;;;;;;;;;;;6.23;88.38;96316.50;4983285;28;19993;-74
2022/02/03 17:30:05;;;;;;;;;;;;;;;6.18;88.55;96303.28;4983686;28;19963;-74
2022/02/03 18:19:54;;;;;;;;;;;;;;;5.71;89.38;96313.38;4981678;28;20529;-74
2022/02/03 18:51:07;;;;;;;;;;;;;;;5.56;90.29;96299.66;4986269;28;19962;-74
2022/02/03 18:59:01;;;;;;;;;;;;;;;5.49;89.64;96303.03;4986860;28;19963;-73
2022/02/03 19:01:47;;;;;;;;;;;;;;;5.46;89.97;96295.59;4967763;28;19959;-73
2022/02/03 20:08:36;;;;;;;;;;;;;;;4.79;90.05;96272.66;4991942;28;19961;-74
2022/02/03 20:11:02;;;;;;;;;;;;;;;4.76;89.81;96281.59;4986783;28;19968;-73
2022/02/03 20:13:28;;;;;;;;;;;;;;;4.74;89.75;96280.97;4988950;28;20001;-73
2022/02/03 20:15:55;;;;;;;;;;;;;;;4.73;89.74;96283.78;4982588;28;19958;-73
2022/02/03 20:18:22;;;;;;;;;;;;;;;4.70;89.99;96282.34;4985377;28;20423;-73
2022/02/03 20:20:48;;;;;;;;;;;;;;;4.68;89.86;96279.94;4985958;28;19961;-73
2022/02/03 20:23:17;;;;;;;;;;;;;;;4.67;89.84;96285.31;4987501;28;19960;-73
2022/02/03 20:25:45;;;;;;;;;;;;;;;4.64;89.87;96283.91;4992276;28;19972;-73
2022/02/03 20:28:11;;;;;;;;;;;;;;;4.64;89.74;96293.47;4989253;28;19977;-73
2022/02/03 20:30:37;;;;;;;;;;;;;;;4.61;89.61;96291.25;4984000;28;19950;-73
2022/02/03 20:33:03;;;;;;;;;;;;;;;4.58;89.49;96291.63;4982003;28;19970;-74
2022/02/03 20:35:30;;;;;;;;;;;;;;;4.55;89.43;96292.78;4989349;28;19962;-73
2022/02/03 20:37:55;;;;;;;;;;;;;;;4.53;89.60;96286.16;4989789;28;20334;-74
2022/02/03 20:40:21;;;;;;;;;;;;;;;4.50;89.52;96284.75;4981129;28;20042;-73
2022/02/03 20:42:47;;;;;;;;;;;;;;;4.48;89.79;96286.72;4988348;28;19969;-73
2022/02/03 20:45:15;;;;;;;;;;;;;;;4.47;90.05;96293.72;4986076;28;20401;-73
2022/02/03 20:47:40;;;;;;;;;;;;;;;4.48;90.10;96287.53;4985134;28;20342;-74
2022/02/03 20:50:09;;;;;;;;;;;;;;;4.48;90.23;96287.53;4987104;28;19961;-73
2022/02/03 20:52:35;;;;;;;;;;;;;;;4.49;90.49;96283.13;4987081;28;20325;-73
2022/02/03 20:55:01;;;;;;;;;;;;;;;4.48;90.43;96284.13;4987024;28;19994;-73
2022/02/03 20:57:27;;;;;;;;;;;;;;;4.48;90.28;96276.34;4985754;28;20335;-74
2022/02/03 21:00:04;;;;;;;;;;;;;;;4.46;90.29;96278.31;4984452;28;19964;-73
2022/02/03 21:07:33;;;;;;;;;;;;;;;4.39;90.15;96277.41;4984608;28;20269;-73
2022/02/03 21:10:03;;;;;;;;;;;;;;;4.38;90.34;96276.63;4986170;28;20457;-73
2022/02/03 21:12:29;;;;;;;;;;;;;;;4.37;90.13;96271.63;4983084;28;19978;-73
2022/02/03 21:14:56;;;;;;;;;;;;;;;4.34;90.24;96274.56;4986372;28;19960;-74
2022/02/03 21:17:23;;;;;;;;;;;;;;;4.32;90.08;96277.34;4980726;28;19965;-73
2022/02/03 21:19:49;;;;;;;;;;;;;;;4.29;89.91;96280.31;4984210;28;19962;-73
2022/02/03 21:22:16;;;;;;;;;;;;;;;4.25;89.89;96277.28;4990567;28;19964;-74
2022/02/03 21:24:42;;;;;;;;;;;;;;;4.23;89.83;96271.47;4989726;28;19969;-74
2022/02/03 21:27:15;;;;;;;;;;;;;;;4.20;89.85;96282.22;4984333;28;20000;-73
2022/02/03 21:29:42;;;;;;;;;;;;;;;4.17;89.82;96282.56;4982879;28;19960;-73
2022/02/03 21:32:08;;;;;;;;;;;;;;;4.15;89.66;96281.94;4984513;28;19973;-73
2022/02/03 21:34:34;;;;;;;;;;;;;;;4.13;89.81;96288.31;4990194;28;19970;-73
2022/02/03 21:37:00;;;;;;;;;;;;;;;4.11;89.87;96291.06;4980406;28;19951;-73
2022/02/03 21:39:26;;;;;;;;;;;;;;;4.09;90.24;96284.47;4982600;28;20475;-73
2022/02/03 21:41:52;;;;;;;;;;;;;;;4.09;90.45;96290.44;4988079;28;20161;-73
2022/02/03 21:44:17;;;;;;;;;;;;;;;4.07;90.46;96287.22;4986797;28;19966;-73
2022/02/03 21:46:44;;;;;;;;;;;;;;;4.08;90.63;96288.84;4986847;28;19979;-73
2022/02/03 21:49:10;;;;;;;;;;;;;;;4.07;90.92;96285.47;4986407;28;19963;-73
2022/02/03 21:51:41;;;;;;;;;;;;;;;4.05;90.74;96277.03;4980732;28;20333;-73
2022/02/03 21:54:09;;;;;;;;;;;;;;;4.03;90.44;96283.38;4991201;28;19960;-73
2022/02/03 21:56:35;;;;;;;;;;;;;;;4.00;90.24;96279.38;4982463;28;19964;-73
2022/02/03 21:59:06;;;;;;;;;;;;;;;3.98;90.33;96280.53;4983247;28;19964;-73
2022/02/03 22:01:39;;;;;;;;;;;;;;;3.94;90.48;96274.88;4984787;28;19954;-73
2022/02/03 22:04:06;;;;;;;;;;;;;;;3.95;90.67;96281.72;4982887;28;19958;-73
2022/02/03 22:06:32;;;;;;;;;;;;;;;3.94;90.61;96281.88;4984349;28;19951;-73
2022/02/03 22:08:58;;;;;;;;;;;;;;;3.91;91.18;96275.25;4985344;28;19971;-73
2022/02/03 22:11:24;;;;;;;;;;;;;;;3.86;91.67;96275.81;4987100;28;19959;-73
2022/02/03 22:13:50;;;;;;;;;;;;;;;3.82;91.82;96278.91;4983752;28;20404;-73
2022/02/03 22:16:21;;;;;;;;;;;;;;;3.83;92.06;96280.53;4983172;28;19971;-73
2022/02/03 22:18:47;;;;;;;;;;;;;;;3.82;91.90;96281.50;4990654;28;19958;-73
2022/02/03 22:24:03;;;;;;;;;;;;;;;3.82;91.30;96284.94;4984554;28;19957;-74
2022/02/03 22:45:20;;;;;;;;;;;;;;;3.61;89.75;96274.44;4985307;28;19957;-73
2022/02/03 22:48:14;;;;;;;;;;;;;;;3.59;90.03;96285.00;4986486;28;19975;-73
2022/02/03 22:50:40;;;;;;;;;;;;;;;3.55;89.98;96275.16;4987964;28;20412;-74
2022/02/03 22:53:06;;;;;;;;;;;;;;;3.53;89.84;96282.31;4986201;28;19955;-73
2022/02/03 22:55:35;;;;;;;;;;;;;;;3.50;89.59;96285.25;4984752;28;19995;-73
2022/02/03 23:01:00;;;;;;;;;;;;;;;3.43;89.46;96275.59;4945712;28;19974;-73
2022/02/03 23:03:27;;;;;;;;;;;;;;;3.40;89.42;96278.56;4989063;28;19950;-74
2022/02/03 23:05:53;;;;;;;;;;;;;;;3.39;89.30;96283.91;4985745;28;19960;-73
2022/02/03 23:08:27;;;;;;;;;;;;;;;3.36;89.33;96289.44;4980484;28;19989;-73
2022/02/03 23:16:20;;;;;;;;;;;;;;;3.29;89.54;96296.31;4970743;28;19970;-73
2022/02/03 23:21:39;;;;;;;;;;;;;;;3.23;89.49;96290.03;4992559;28;19975;-73
2022/02/03 23:24:00;;;;;;;;;;;;;;;3.19;89.25;96291.34;4990543;28;19963;-73
2022/02/03 23:26:28;;;;;;;;;;;;;;;3.15;89.02;96290.09;4987044;28;19955;-73
2022/02/03 23:29:01;;;;;;;;;;;;;;;3.13;89.10;96302.41;4986391;28;19970;-73
2022/02/03 23:31:33;;;;;;;;;;;;;;;3.09;89.15;96303.75;4987094;28;19980;-74
2022/02/03 23:34:00;;;;;;;;;;;;;;;3.05;88.75;96304.09;4985014;28;20425;-74
2022/02/03 23:36:26;;;;;;;;;;;;;;;3.01;88.39;96310.63;4987610;28;20355;-73
2022/02/03 23:52:27;;;;;;;;;;;;;;;2.71;87.70;96309.69;4987191;28;20027;-74
